Concho Valley, Arizona
Current Conditions -  °F | °C
As of 6:54 AM on Saturday 22 Nov 2014 (Local Time) from KSJN Reporting Station
Clear Clear  
Wind Chill: 23°   Ceiling: Unl
Heat Index: 23°   Visibility: 10mi
Dew Point: 18°   Wind: 3mph
Humidity: 81%   Direction: 150°SSE
Pressure: 30.13"   Gusts: NA
Location:  34.4334°N, 109.652°W
Report Text: KSJN 221354Z AUTO 15003KT 10SM CLR M05/M08 A3013 RMK AO2 SLP207 T10501078
Loading
Personal Weather Stations






























Interactive Weather Map New forecast layout! Learn more

10-Day Weather Forecast

Advertisements
Track Severe Weather on mobile